sensor_id;sensor_type;location;lat;lon;timestamp;P1;durP1;ratioP1;P2;durP2;ratioP2
64857;SDS011;51335;51.148;6.950;2022-12-20T00:00:29;3.67;;;2.08;;
64857;SDS011;51335;51.148;6.950;2022-12-20T00:01:00;4.07;;;1.90;;
64857;SDS011;51335;51.148;6.950;2022-12-20T00:01:31;4.07;;;1.88;;
64857;SDS011;51335;51.148;6.950;2022-12-20T00:02:02;4.63;;;2.03;;
64857;SDS011;51335;51.148;6.950;2022-12-20T00:02:33;3.25;;;1.90;;
64857;SDS011;51335;51.148;6.950;2022-12-20T00:03:03;3.83;;;1.92;;
64857;SDS011;51335;51.148;6.950;2022-12-20T00:03:33;5.97;;;1.90;;
64857;SDS011;51335;51.148;6.950;2022-12-20T00:04:04;3.13;;;2.05;;
64857;SDS011;51335;51.148;6.950;2022-12-20T00:04:34;3.25;;;1.88;;
64857;SDS011;51335;51.148;6.950;2022-12-20T00:05:05;6.45;;;2.03;;
64857;SDS011;51335;51.148;6.950;2022-12-20T00:05:35;3.85;;;1.88;;
64857;SDS011;51335;51.148;6.950;2022-12-20T00:06:07;5.40;;;1.85;;
64857;SDS011;51335;51.148;6.950;2022-12-20T00:06:37;5.10;;;2.05;;
64857;SDS011;51335;51.148;6.950;2022-12-20T00:07:08;3.05;;;2.00;;
64857;SDS011;51335;51.148;6.950;2022-12-20T00:07:38;4.97;;;2.00;;
64857;SDS011;51335;51.148;6.950;2022-12-20T00:08:08;4.55;;;1.90;;
64857;SDS011;51335;51.148;6.950;2022-12-20T00:08:39;4.05;;;1.83;;
64857;SDS011;51335;51.148;6.950;2022-12-20T00:09:10;3.72;;;1.88;;
64857;SDS011;51335;51.148;6.950;2022-12-20T00:09:40;3.75;;;2.00;;
64857;SDS011;51335;51.148;6.950;2022-12-20T00:10:11;3.35;;;2.10;;
64857;SDS011;51335;51.148;6.950;2022-12-20T00:10:42;3.55;;;1.70;;
64857;SDS011;51335;51.148;6.950;2022-12-20T00:11:13;4.28;;;2.15;;
64857;SDS011;51335;51.148;6.950;2022-12-20T00:11:44;4.32;;;2.03;;
64857;SDS011;51335;51.148;6.950;2022-12-20T00:12:14;3.20;;;2.08;;
64857;SDS011;51335;51.148;6.950;2022-12-20T00:12:44;4.30;;;2.03;;
64857;SDS011;51335;51.148;6.950;2022-12-20T00:13:15;4.15;;;1.80;;
64857;SDS011;51335;51.148;6.950;2022-12-20T00:13:45;4.47;;;2.17;;
64857;SDS011;51335;51.148;6.950;2022-12-20T00:14:16;3.90;;;2.13;;
64857;SDS011;51335;51.148;6.950;2022-12-20T00:14:46;3.95;;;1.95;;
64857;SDS011;51335;51.148;6.950;2022-12-20T00:15:17;3.00;;;2.05;;
64857;SDS011;51335;51.148;6.950;2022-12-20T00:15:47;3.00;;;1.90;;
64857;SDS011;51335;51.148;6.950;2022-12-20T00:16:18;2.60;;;1.95;;
64857;SDS011;51335;51.148;6.950;2022-12-20T00:16:50;2.97;;;2.10;;
64857;SDS011;51335;51.148;6.950;2022-12-20T00:17:20;3.67;;;2.22;;
64857;SDS011;51335;51.148;6.950;2022-12-20T00:17:50;3.85;;;2.00;;
64857;SDS011;51335;51.148;6.950;2022-12-20T00:18:21;4.43;;;2.28;;
64857;SDS011;51335;51.148;6.950;2022-12-20T00:18:51;3.33;;;2.05;;
64857;SDS011;51335;51.148;6.950;2022-12-20T00:19:23;4.07;;;1.90;;
64857;SDS011;51335;51.148;6.950;2022-12-20T00:19:53;3.78;;;2.15;;
64857;SDS011;51335;51.148;6.950;2022-12-20T00:20:24;4.13;;;2.15;;
64857;SDS011;51335;51.148;6.950;2022-12-20T00:20:59;3.90;;;2.15;;
64857;SDS011;51335;51.148;6.950;2022-12-20T00:21:31;4.57;;;2.28;;
64857;SDS011;51335;51.148;6.950;2022-12-20T00:22:03;4.28;;;2.03;;
64857;SDS011;51335;51.148;6.950;2022-12-20T00:22:33;6.07;;;2.17;;
64857;SDS011;51335;51.148;6.950;2022-12-20T00:23:03;4.53;;;2.00;;
64857;SDS011;51335;51.148;6.950;2022-12-20T00:23:34;3.65;;;1.90;;
64857;SDS011;51335;51.148;6.950;2022-12-20T00:24:05;3.72;;;2.17;;
64857;SDS011;51335;51.148;6.950;2022-12-20T00:24:36;4.85;;;2.10;;
64857;SDS011;51335;51.148;6.950;2022-12-20T00:25:06;3.90;;;2.00;;
64857;SDS011;51335;51.148;6.950;2022-12-20T00:25:37;3.15;;;1.95;;
64857;SDS011;51335;51.148;6.950;2022-12-20T00:26:11;6.13;;;2.05;;
64857;SDS011;51335;51.148;6.950;2022-12-20T00:26:43;3.83;;;1.85;;
64857;SDS011;51335;51.148;6.950;2022-12-20T00:27:13;4.38;;;2.00;;
64857;SDS011;51335;51.148;6.950;2022-12-20T00:27:43;3.13;;;2.30;;
64857;SDS011;51335;51.148;6.950;2022-12-20T00:28:14;3.22;;;2.00;;
64857;SDS011;51335;51.148;6.950;2022-12-20T00:28:44;4.35;;;2.15;;
64857;SDS011;51335;51.148;6.950;2022-12-20T00:29:15;1.90;;;1.70;;
64857;SDS011;51335;51.148;6.950;2022-12-20T00:29:45;6.05;;;2.05;;
64857;SDS011;51335;51.148;6.950;2022-12-20T00:30:15;3.25;;;2.10;;
64857;SDS011;51335;51.148;6.950;2022-12-20T00:30:51;3.05;;;1.92;;
64857;SDS011;51335;51.148;6.950;2022-12-20T00:31:24;3.05;;;1.90;;
64857;SDS011;51335;51.148;6.950;2022-12-20T00:31:55;4.38;;;2.10;;
64857;SDS011;51335;51.148;6.950;2022-12-20T00:32:26;3.15;;;1.85;;
64857;SDS011;51335;51.148;6.950;2022-12-20T00:32:56;3.85;;;1.83;;
64857;SDS011;51335;51.148;6.950;2022-12-20T00:33:26;4.43;;;2.05;;
64857;SDS011;51335;51.148;6.950;2022-12-20T00:33:58;4.10;;;1.90;;
64857;SDS011;51335;51.148;6.950;2022-12-20T00:34:29;5.15;;;2.22;;
64857;SDS011;51335;51.148;6.950;2022-12-20T00:34:59;4.00;;;1.98;;
64857;SDS011;51335;51.148;6.950;2022-12-20T00:35:29;4.88;;;2.20;;
64857;SDS011;51335;51.148;6.950;2022-12-20T00:35:59;4.95;;;2.00;;
64857;SDS011;51335;51.148;6.950;2022-12-20T00:36:30;4.32;;;1.80;;
64857;SDS011;51335;51.148;6.950;2022-12-20T00:37:01;3.15;;;2.13;;
64857;SDS011;51335;51.148;6.950;2022-12-20T00:37:32;4.05;;;1.90;;
64857;SDS011;51335;51.148;6.950;2022-12-20T00:38:02;2.60;;;1.60;;
64857;SDS011;51335;51.148;6.950;2022-12-20T00:38:33;2.22;;;1.73;;
64857;SDS011;51335;51.148;6.950;2022-12-20T00:39:04;5.35;;;2.05;;
64857;SDS011;51335;51.148;6.950;2022-12-20T00:39:34;4.28;;;1.98;;
64857;SDS011;51335;51.148;6.950;2022-12-20T00:40:04;2.60;;;1.80;;
64857;SDS011;51335;51.148;6.950;2022-12-20T00:40:36;4.70;;;2.10;;
64857;SDS011;51335;51.148;6.950;2022-12-20T00:41:07;4.70;;;1.98;;
64857;SDS011;51335;51.148;6.950;2022-12-20T00:41:39;3.20;;;1.80;;
64857;SDS011;51335;51.148;6.950;2022-12-20T00:42:09;5.40;;;2.03;;
64857;SDS011;51335;51.148;6.950;2022-12-20T00:42:40;4.40;;;2.00;;
64857;SDS011;51335;51.148;6.950;2022-12-20T00:43:10;3.50;;;1.83;;
64857;SDS011;51335;51.148;6.950;2022-12-20T00:43:40;3.13;;;1.80;;
64857;SDS011;51335;51.148;6.950;2022-12-20T00:44:11;3.90;;;1.73;;
64857;SDS011;51335;51.148;6.950;2022-12-20T00:44:41;3.05;;;1.70;;
64857;SDS011;51335;51.148;6.950;2022-12-20T00:45:11;3.42;;;1.80;;
64857;SDS011;51335;51.148;6.950;2022-12-20T00:45:41;5.07;;;1.73;;
64857;SDS011;51335;51.148;6.950;2022-12-20T00:46:12;5.28;;;2.10;;
64857;SDS011;51335;51.148;6.950;2022-12-20T00:46:43;3.20;;;1.73;;
64857;SDS011;51335;51.148;6.950;2022-12-20T00:47:13;3.58;;;1.70;;
64857;SDS011;51335;51.148;6.950;2022-12-20T00:47:44;2.78;;;1.98;;
64857;SDS011;51335;51.148;6.950;2022-12-20T00:48:14;3.50;;;1.92;;
64857;SDS011;51335;51.148;6.950;2022-12-20T00:48:44;3.65;;;1.80;;
64857;SDS011;51335;51.148;6.950;2022-12-20T00:49:15;3.22;;;1.90;;
64857;SDS011;51335;51.148;6.950;2022-12-20T00:49:45;3.50;;;2.10;;
64857;SDS011;51335;51.148;6.950;2022-12-20T00:50:15;4.95;;;1.98;;
64857;SDS011;51335;51.148;6.950;2022-12-20T00:50:46;4.80;;;2.08;;
64857;SDS011;51335;51.148;6.950;2022-12-20T00:51:17;3.47;;;1.70;;
64857;SDS011;51335;51.148;6.950;2022-12-20T00:51:50;3.22;;;2.00;;
64857;SDS011;51335;51.148;6.950;2022-12-20T00:52:20;4.25;;;1.83;;
64857;SDS011;51335;51.148;6.950;2022-12-20T00:52:51;3.60;;;2.08;;
64857;SDS011;51335;51.148;6.950;2022-12-20T00:53:21;4.07;;;2.20;;
64857;SDS011;51335;51.148;6.950;2022-12-20T00:53:51;5.20;;;2.17;;
64857;SDS011;51335;51.148;6.950;2022-12-20T00:54:22;4.25;;;2.25;;
64857;SDS011;51335;51.148;6.950;2022-12-20T00:54:53;3.47;;;2.00;;
64857;SDS011;51335;51.148;6.950;2022-12-20T00:55:23;4.10;;;2.10;;
64857;SDS011;51335;51.148;6.950;2022-12-20T00:55:53;5.82;;;2.05;;
64857;SDS011;51335;51.148;6.950;2022-12-20T00:56:23;3.20;;;1.90;;
64857;SDS011;51335;51.148;6.950;2022-12-20T00:56:54;2.78;;;2.00;;
64857;SDS011;51335;51.148;6.950;2022-12-20T00:57:24;5.45;;;2.00;;
64857;SDS011;51335;51.148;6.950;2022-12-20T00:57:54;3.72;;;1.90;;
64857;SDS011;51335;51.148;6.950;2022-12-20T00:58:25;3.90;;;1.80;;
64857;SDS011;51335;51.148;6.950;2022-12-20T00:58:57;6.97;;;2.00;;
64857;SDS011;51335;51.148;6.950;2022-12-20T00:59:28;4.57;;;1.80;;
64857;SDS011;51335;51.148;6.950;2022-12-20T00:59:58;2.70;;;1.88;;
64857;SDS011;51335;51.148;6.950;2022-12-20T01:00:28;3.25;;;1.73;;
64857;SDS011;51335;51.148;6.950;2022-12-20T01:00:59;4.85;;;2.00;;
64857;SDS011;51335;51.148;6.950;2022-12-20T01:01:30;3.92;;;1.70;;
64857;SDS011;51335;51.148;6.950;2022-12-20T01:02:01;3.20;;;1.75;;
64857;SDS011;51335;51.148;6.950;2022-12-20T01:02:32;3.08;;;1.88;;
64857;SDS011;51335;51.148;6.950;2022-12-20T01:03:02;4.28;;;2.17;;
64857;SDS011;51335;51.148;6.950;2022-12-20T01:03:33;3.25;;;1.90;;
64857;SDS011;51335;51.148;6.950;2022-12-20T01:04:03;2.42;;;1.70;;
64857;SDS011;51335;51.148;6.950;2022-12-20T01:04:33;4.82;;;1.92;;
64857;SDS011;51335;51.148;6.950;2022-12-20T01:05:03;4.18;;;2.00;;
64857;SDS011;51335;51.148;6.950;2022-12-20T01:05:34;3.80;;;1.80;;
64857;SDS011;51335;51.148;6.950;2022-12-20T01:06:05;3.75;;;1.95;;
64857;SDS011;51335;51.148;6.950;2022-12-20T01:06:35;3.00;;;2.00;;
64857;SDS011;51335;51.148;6.950;2022-12-20T01:07:06;4.07;;;1.92;;
64857;SDS011;51335;51.148;6.950;2022-12-20T01:07:36;2.45;;;1.80;;
64857;SDS011;51335;51.148;6.950;2022-12-20T01:08:06;3.17;;;1.75;;
64857;SDS011;51335;51.148;6.950;2022-12-20T01:08:37;2.72;;;1.70;;
64857;SDS011;51335;51.148;6.950;2022-12-20T01:09:09;3.10;;;1.80;;
64857;SDS011;51335;51.148;6.950;2022-12-20T01:09:39;5.18;;;2.00;;
64857;SDS011;51335;51.148;6.950;2022-12-20T01:10:10;4.05;;;1.88;;
64857;SDS011;51335;51.148;6.950;2022-12-20T01:10:40;4.85;;;1.95;;
64857;SDS011;51335;51.148;6.950;2022-12-20T01:11:18;4.80;;;1.92;;
64857;SDS011;51335;51.148;6.950;2022-12-20T01:11:49;4.53;;;2.00;;
64857;SDS011;51335;51.148;6.950;2022-12-20T01:12:20;2.83;;;1.90;;
64857;SDS011;51335;51.148;6.950;2022-12-20T01:12:51;3.22;;;1.95;;
64857;SDS011;51335;51.148;6.950;2022-12-20T01:13:21;4.18;;;2.10;;
64857;SDS011;51335;51.148;6.950;2022-12-20T01:13:52;4.00;;;1.83;;
64857;SDS011;51335;51.148;6.950;2022-12-20T01:14:24;4.57;;;2.10;;
64857;SDS011;51335;51.148;6.950;2022-12-20T01:14:55;3.55;;;1.90;;
64857;SDS011;51335;51.148;6.950;2022-12-20T01:15:25;5.35;;;2.30;;
64857;SDS011;51335;51.148;6.950;2022-12-20T01:15:55;3.38;;;1.90;;
64857;SDS011;51335;51.148;6.950;2022-12-20T01:16:27;4.30;;;2.22;;
64857;SDS011;51335;51.148;6.950;2022-12-20T01:17:04;4.53;;;2.30;;
64857;SDS011;51335;51.148;6.950;2022-12-20T01:17:35;4.75;;;2.30;;
64857;SDS011;51335;51.148;6.950;2022-12-20T01:18:05;3.75;;;2.22;;
64857;SDS011;51335;51.148;6.950;2022-12-20T01:18:35;4.15;;;2.10;;
64857;SDS011;51335;51.148;6.950;2022-12-20T01:19:06;3.58;;;2.20;;
64857;SDS011;51335;51.148;6.950;2022-12-20T01:19:38;3.17;;;2.03;;
64857;SDS011;51335;51.148;6.950;2022-12-20T01:20:09;4.55;;;2.20;;
64857;SDS011;51335;51.148;6.950;2022-12-20T01:20:39;4.78;;;2.30;;
64857;SDS011;51335;51.148;6.950;2022-12-20T01:21:11;4.40;;;2.30;;
64857;SDS011;51335;51.148;6.950;2022-12-20T01:21:43;4.50;;;2.00;;
64857;SDS011;51335;51.148;6.950;2022-12-20T01:22:13;4.13;;;2.25;;
64857;SDS011;51335;51.148;6.950;2022-12-20T01:22:43;3.95;;;2.15;;
64857;SDS011;51335;51.148;6.950;2022-12-20T01:23:14;4.63;;;2.20;;
64857;SDS011;51335;51.148;6.950;2022-12-20T01:23:44;7.35;;;2.60;;
64857;SDS011;51335;51.148;6.950;2022-12-20T01:24:16;4.47;;;2.10;;
64857;SDS011;51335;51.148;6.950;2022-12-20T01:24:48;3.50;;;2.13;;
64857;SDS011;51335;51.148;6.950;2022-12-20T01:25:18;2.97;;;2.00;;
64857;SDS011;51335;51.148;6.950;2022-12-20T01:25:49;4.13;;;2.30;;
64857;SDS011;51335;51.148;6.950;2022-12-20T01:26:22;2.97;;;2.38;;
64857;SDS011;51335;51.148;6.950;2022-12-20T01:26:54;5.88;;;2.28;;
64857;SDS011;51335;51.148;6.950;2022-12-20T01:27:24;4.20;;;2.25;;
64857;SDS011;51335;51.148;6.950;2022-12-20T01:27:55;5.05;;;2.20;;
64857;SDS011;51335;51.148;6.950;2022-12-20T01:28:25;4.40;;;2.22;;
64857;SDS011;51335;51.148;6.950;2022-12-20T01:28:57;3.05;;;2.10;;
64857;SDS011;51335;51.148;6.950;2022-12-20T01:29:28;3.67;;;2.30;;
64857;SDS011;51335;51.148;6.950;2022-12-20T01:29:58;3.38;;;2.30;;
64857;SDS011;51335;51.148;6.950;2022-12-20T01:30:29;3.15;;;2.20;;
64857;SDS011;51335;51.148;6.950;2022-12-20T01:30:59;3.22;;;2.10;;
64857;SDS011;51335;51.148;6.950;2022-12-20T01:31:29;5.20;;;2.47;;
64857;SDS011;51335;51.148;6.950;2022-12-20T01:32:00;4.60;;;2.30;;
64857;SDS011;51335;51.148;6.950;2022-12-20T01:32:30;3.15;;;2.20;;
64857;SDS011;51335;51.148;6.950;2022-12-20T01:33:00;4.00;;;2.25;;
64857;SDS011;51335;51.148;6.950;2022-12-20T01:33:30;3.60;;;2.40;;
64857;SDS011;51335;51.148;6.950;2022-12-20T01:34:01;5.22;;;2.47;;
64857;SDS011;51335;51.148;6.950;2022-12-20T01:34:31;4.03;;;2.20;;
64857;SDS011;51335;51.148;6.950;2022-12-20T01:35:01;4.30;;;2.20;;
64857;SDS011;51335;51.148;6.950;2022-12-20T01:35:32;4.15;;;2.50;;
64857;SDS011;51335;51.148;6.950;2022-12-20T01:36:03;2.78;;;2.20;;
64857;SDS011;51335;51.148;6.950;2022-12-20T01:36:36;4.68;;;2.30;;
64857;SDS011;51335;51.148;6.950;2022-12-20T01:37:07;4.63;;;2.10;;
64857;SDS011;51335;51.148;6.950;2022-12-20T01:37:37;5.50;;;2.50;;
64857;SDS011;51335;51.148;6.950;2022-12-20T01:38:07;4.60;;;2.15;;
64857;SDS011;51335;51.148;6.950;2022-12-20T01:38:37;3.95;;;2.17;;
64857;SDS011;51335;51.148;6.950;2022-12-20T01:39:11;3.55;;;2.10;;
64857;SDS011;51335;51.148;6.950;2022-12-20T01:39:44;6.82;;;2.30;;
64857;SDS011;51335;51.148;6.950;2022-12-20T01:40:14;3.10;;;2.00;;
64857;SDS011;51335;51.148;6.950;2022-12-20T01:40:44;5.40;;;2.50;;
64857;SDS011;51335;51.148;6.950;2022-12-20T01:41:19;5.25;;;2.22;;
64857;SDS011;51335;51.148;6.950;2022-12-20T01:41:50;3.72;;;2.20;;
64857;SDS011;51335;51.148;6.950;2022-12-20T01:42:21;3.03;;;2.08;;
64857;SDS011;51335;51.148;6.950;2022-12-20T01:42:51;6.07;;;2.55;;
64857;SDS011;51335;51.148;6.950;2022-12-20T01:43:21;4.85;;;2.15;;
64857;SDS011;51335;51.148;6.950;2022-12-20T01:43:57;3.63;;;2.47;;
64857;SDS011;51335;51.148;6.950;2022-12-20T01:44:59;3.45;;;2.20;;
64857;SDS011;51335;51.148;6.950;2022-12-20T01:45:30;5.60;;;2.30;;
64857;SDS011;51335;51.148;6.950;2022-12-20T01:46:00;6.10;;;2.22;;
64857;SDS011;51335;51.148;6.950;2022-12-20T01:46:34;3.67;;;2.20;;
64857;SDS011;51335;51.148;6.950;2022-12-20T01:47:04;4.30;;;2.47;;
64857;SDS011;51335;51.148;6.950;2022-12-20T01:47:35;5.10;;;2.40;;
64857;SDS011;51335;51.148;6.950;2022-12-20T01:48:06;5.75;;;2.10;;
64857;SDS011;51335;51.148;6.950;2022-12-20T01:48:36;6.38;;;2.10;;
64857;SDS011;51335;51.148;6.950;2022-12-20T01:50:13;3.47;;;2.38;;
64857;SDS011;51335;51.148;6.950;2022-12-20T01:50:44;3.13;;;2.20;;
64857;SDS011;51335;51.148;6.950;2022-12-20T01:51:15;6.53;;;2.15;;
64857;SDS011;51335;51.148;6.950;2022-12-20T01:51:51;5.03;;;2.20;;
64857;SDS011;51335;51.148;6.950;2022-12-20T01:53:01;2.78;;;1.80;;
64857;SDS011;51335;51.148;6.950;2022-12-20T01:53:32;4.25;;;2.28;;
64857;SDS011;51335;51.148;6.950;2022-12-20T01:54:06;5.82;;;2.10;;
64857;SDS011;51335;51.148;6.950;2022-12-20T01:54:46;4.57;;;2.20;;
64857;SDS011;51335;51.148;6.950;2022-12-20T01:55:21;3.58;;;1.88;;
64857;SDS011;51335;51.148;6.950;2022-12-20T01:55:53;3.38;;;1.80;;
64857;SDS011;51335;51.148;6.950;2022-12-20T01:56:24;2.88;;;2.00;;
64857;SDS011;51335;51.148;6.950;2022-12-20T01:56:56;4.53;;;2.10;;
64857;SDS011;51335;51.148;6.950;2022-12-20T01:57:37;4.32;;;2.40;;
64857;SDS011;51335;51.148;6.950;2022-12-20T01:58:20;3.25;;;1.92;;
64857;SDS011;51335;51.148;6.950;2022-12-20T01:58:51;3.45;;;2.30;;
64857;SDS011;51335;51.148;6.950;2022-12-20T01:59:23;3.95;;;2.10;;
64857;SDS011;51335;51.148;6.950;2022-12-20T01:59:55;3.75;;;2.05;;
64857;SDS011;51335;51.148;6.950;2022-12-20T02:00:26;4.07;;;2.10;;
64857;SDS011;51335;51.148;6.950;2022-12-20T02:00:57;4.30;;;2.03;;
64857;SDS011;51335;51.148;6.950;2022-12-20T02:01:27;4.22;;;2.13;;
64857;SDS011;51335;51.148;6.950;2022-12-20T02:01:58;4.70;;;2.00;;
64857;SDS011;51335;51.148;6.950;2022-12-20T02:02:31;3.85;;;2.00;;
64857;SDS011;51335;51.148;6.950;2022-12-20T02:03:03;3.33;;;1.90;;
64857;SDS011;51335;51.148;6.950;2022-12-20T02:03:35;5.18;;;2.15;;
64857;SDS011;51335;51.148;6.950;2022-12-20T02:04:06;4.28;;;2.10;;
64857;SDS011;51335;51.148;6.950;2022-12-20T02:04:36;3.50;;;2.00;;
64857;SDS011;51335;51.148;6.950;2022-12-20T02:05:07;4.72;;;2.13;;
64857;SDS011;51335;51.148;6.950;2022-12-20T02:05:39;3.67;;;2.13;;
64857;SDS011;51335;51.148;6.950;2022-12-20T02:06:15;2.80;;;2.10;;
64857;SDS011;51335;51.148;6.950;2022-12-20T02:06:47;3.88;;;2.13;;
64857;SDS011;51335;51.148;6.950;2022-12-20T02:07:19;3.60;;;2.00;;
64857;SDS011;51335;51.148;6.950;2022-12-20T02:07:54;2.78;;;2.10;;
64857;SDS011;51335;51.148;6.950;2022-12-20T02:08:26;3.92;;;2.10;;
64857;SDS011;51335;51.148;6.950;2022-12-20T02:08:57;3.97;;;2.08;;
64857;SDS011;51335;51.148;6.950;2022-12-20T02:09:29;4.70;;;2.00;;
64857;SDS011;51335;51.148;6.950;2022-12-20T02:10:02;4.50;;;2.15;;
64857;SDS011;51335;51.148;6.950;2022-12-20T02:10:59;2.55;;;1.90;;
64857;SDS011;51335;51.148;6.950;2022-12-20T02:12:49;4.28;;;2.13;;
64857;SDS011;51335;51.148;6.950;2022-12-20T02:13:39;3.10;;;2.08;;
64857;SDS011;51335;51.148;6.950;2022-12-20T02:15:54;3.92;;;2.08;;
64857;SDS011;51335;51.148;6.950;2022-12-20T02:16:27;4.03;;;2.00;;
64857;SDS011;51335;51.148;6.950;2022-12-20T02:19:00;6.55;;;1.80;;
64857;SDS011;51335;51.148;6.950;2022-12-20T02:21:38;5.15;;;2.13;;
64857;SDS011;51335;51.148;6.950;2022-12-20T02:29:54;4.93;;;2.15;;
64857;SDS011;51335;51.148;6.950;2022-12-20T02:30:26;3.38;;;2.15;;
64857;SDS011;51335;51.148;6.950;2022-12-20T02:31:03;4.15;;;2.28;;
64857;SDS011;51335;51.148;6.950;2022-12-20T02:31:46;3.30;;;2.05;;
64857;SDS011;51335;51.148;6.950;2022-12-20T02:32:39;4.65;;;2.45;;
64857;SDS011;51335;51.148;6.950;2022-12-20T02:33:22;4.35;;;2.55;;
64857;SDS011;51335;51.148;6.950;2022-12-20T02:33:56;7.22;;;2.20;;
64857;SDS011;51335;51.148;6.950;2022-12-20T02:34:28;4.72;;;2.70;;
64857;SDS011;51335;51.148;6.950;2022-12-20T02:35:02;2.60;;;1.92;;
64857;SDS011;51335;51.148;6.950;2022-12-20T02:35:35;3.40;;;2.30;;
64857;SDS011;51335;51.148;6.950;2022-12-20T02:36:07;5.38;;;2.50;;
64857;SDS011;51335;51.148;6.950;2022-12-20T02:36:37;4.18;;;2.25;;
64857;SDS011;51335;51.148;6.950;2022-12-20T02:37:08;3.42;;;2.22;;
64857;SDS011;51335;51.148;6.950;2022-12-20T02:37:49;3.95;;;2.35;;
64857;SDS011;51335;51.148;6.950;2022-12-20T02:38:26;5.30;;;2.83;;
64857;SDS011;51335;51.148;6.950;2022-12-20T02:38:57;4.82;;;2.40;;
64857;SDS011;51335;51.148;6.950;2022-12-20T02:39:28;5.38;;;2.47;;
64857;SDS011;51335;51.148;6.950;2022-12-20T02:40:00;4.85;;;2.10;;
64857;SDS011;51335;51.148;6.950;2022-12-20T02:40:38;4.30;;;2.40;;
64857;SDS011;51335;51.148;6.950;2022-12-20T02:41:52;3.75;;;2.17;;
64857;SDS011;51335;51.148;6.950;2022-12-20T02:42:30;3.05;;;2.10;;
64857;SDS011;51335;51.148;6.950;2022-12-20T02:43:02;3.20;;;2.20;;
64857;SDS011;51335;51.148;6.950;2022-12-20T02:43:36;5.07;;;2.30;;
64857;SDS011;51335;51.148;6.950;2022-12-20T02:44:09;4.10;;;2.50;;
64857;SDS011;51335;51.148;6.950;2022-12-20T02:44:44;5.85;;;2.60;;
64857;SDS011;51335;51.148;6.950;2022-12-20T02:45:24;5.82;;;2.70;;
64857;SDS011;51335;51.148;6.950;2022-12-20T02:45:58;3.33;;;2.13;;
64857;SDS011;51335;51.148;6.950;2022-12-20T02:46:29;5.15;;;2.42;;
64857;SDS011;51335;51.148;6.950;2022-12-20T02:47:03;4.13;;;2.40;;
64857;SDS011;51335;51.148;6.950;2022-12-20T02:47:41;6.85;;;2.85;;
64857;SDS011;51335;51.148;6.950;2022-12-20T02:48:17;3.35;;;2.40;;
64857;SDS011;51335;51.148;6.950;2022-12-20T02:48:49;3.45;;;2.15;;
64857;SDS011;51335;51.148;6.950;2022-12-20T02:49:22;5.65;;;2.50;;
64857;SDS011;51335;51.148;6.950;2022-12-20T02:49:56;4.28;;;2.28;;
64857;SDS011;51335;51.148;6.950;2022-12-20T02:50:30;5.07;;;2.40;;
64857;SDS011;51335;51.148;6.950;2022-12-20T02:51:15;5.15;;;2.40;;
64857;SDS011;51335;51.148;6.950;2022-12-20T02:51:49;4.40;;;2.25;;
64857;SDS011;51335;51.148;6.950;2022-12-20T02:52:23;4.25;;;2.20;;
64857;SDS011;51335;51.148;6.950;2022-12-20T02:52:56;3.63;;;2.60;;
64857;SDS011;51335;51.148;6.950;2022-12-20T02:53:28;5.78;;;2.45;;
64857;SDS011;51335;51.148;6.950;2022-12-20T02:53:58;3.78;;;2.28;;
64857;SDS011;51335;51.148;6.950;2022-12-20T02:54:29;5.07;;;2.63;;
64857;SDS011;51335;51.148;6.950;2022-12-20T02:55:00;6.68;;;2.35;;
64857;SDS011;51335;51.148;6.950;2022-12-20T02:55:36;4.38;;;2.40;;
64857;SDS011;51335;51.148;6.950;2022-12-20T02:56:10;3.60;;;2.33;;
64857;SDS011;51335;51.148;6.950;2022-12-20T02:56:44;3.88;;;2.40;;
64857;SDS011;51335;51.148;6.950;2022-12-20T02:57:21;4.88;;;2.20;;
64857;SDS011;51335;51.148;6.950;2022-12-20T02:57:59;3.63;;;2.50;;
64857;SDS011;51335;51.148;6.950;2022-12-20T02:58:37;5.00;;;2.65;;
64857;SDS011;51335;51.148;6.950;2022-12-20T02:59:20;4.65;;;2.50;;
64857;SDS011;51335;51.148;6.950;2022-12-20T02:59:55;4.10;;;2.50;;
64857;SDS011;51335;51.148;6.950;2022-12-20T03:00:33;3.92;;;2.50;;
64857;SDS011;51335;51.148;6.950;2022-12-20T03:01:10;5.35;;;2.58;;
64857;SDS011;51335;51.148;6.950;2022-12-20T03:02:02;5.10;;;2.40;;
64857;SDS011;51335;51.148;6.950;2022-12-20T03:02:34;5.43;;;2.47;;
64857;SDS011;51335;51.148;6.950;2022-12-20T03:03:05;4.75;;;2.50;;
64857;SDS011;51335;51.148;6.950;2022-12-20T03:03:36;6.38;;;2.70;;
64857;SDS011;51335;51.148;6.950;2022-12-20T03:04:06;4.97;;;2.75;;
64857;SDS011;51335;51.148;6.950;2022-12-20T03:04:38;4.35;;;2.50;;
64857;SDS011;51335;51.148;6.950;2022-12-20T03:05:09;4.75;;;2.60;;
64857;SDS011;51335;51.148;6.950;2022-12-20T03:05:44;8.85;;;2.60;;
64857;SDS011;51335;51.148;6.950;2022-12-20T03:06:16;5.20;;;2.47;;
64857;SDS011;51335;51.148;6.950;2022-12-20T03:06:59;4.07;;;2.33;;
64857;SDS011;51335;51.148;6.950;2022-12-20T03:07:33;4.03;;;2.25;;
64857;SDS011;51335;51.148;6.950;2022-12-20T03:08:03;4.68;;;2.45;;
64857;SDS011;51335;51.148;6.950;2022-12-20T03:08:34;4.93;;;2.45;;
64857;SDS011;51335;51.148;6.950;2022-12-20T03:09:04;3.92;;;2.42;;
64857;SDS011;51335;51.148;6.950;2022-12-20T03:09:36;7.15;;;2.65;;
64857;SDS011;51335;51.148;6.950;2022-12-20T03:10:08;4.45;;;2.50;;
64857;SDS011;51335;51.148;6.950;2022-12-20T03:10:39;6.20;;;2.40;;
64857;SDS011;51335;51.148;6.950;2022-12-20T03:11:09;5.28;;;2.70;;
64857;SDS011;51335;51.148;6.950;2022-12-20T03:11:40;5.32;;;2.53;;
64857;SDS011;51335;51.148;6.950;2022-12-20T03:12:11;6.50;;;2.65;;
64857;SDS011;51335;51.148;6.950;2022-12-20T03:12:42;5.25;;;2.67;;
64857;SDS011;51335;51.148;6.950;2022-12-20T03:13:13;4.82;;;2.50;;
64857;SDS011;51335;51.148;6.950;2022-12-20T03:13:43;5.22;;;2.60;;
64857;SDS011;51335;51.148;6.950;2022-12-20T03:14:13;4.93;;;2.60;;
64857;SDS011;51335;51.148;6.950;2022-12-20T03:14:44;4.72;;;2.50;;
64857;SDS011;51335;51.148;6.950;2022-12-20T03:15:14;3.33;;;2.40;;
64857;SDS011;51335;51.148;6.950;2022-12-20T03:15:44;5.15;;;2.60;;
64857;SDS011;51335;51.148;6.950;2022-12-20T03:16:15;4.28;;;2.50;;
64857;SDS011;51335;51.148;6.950;2022-12-20T03:16:45;6.60;;;2.90;;
64857;SDS011;51335;51.148;6.950;2022-12-20T03:17:15;3.67;;;2.60;;
64857;SDS011;51335;51.148;6.950;2022-12-20T03:17:46;4.43;;;2.50;;
64857;SDS011;51335;51.148;6.950;2022-12-20T03:18:16;6.40;;;2.55;;
64857;SDS011;51335;51.148;6.950;2022-12-20T03:18:46;5.40;;;3.08;;
64857;SDS011;51335;51.148;6.950;2022-12-20T03:19:17;4.90;;;2.60;;
64857;SDS011;51335;51.148;6.950;2022-12-20T03:19:47;4.97;;;2.75;;
64857;SDS011;51335;51.148;6.950;2022-12-20T03:20:17;5.85;;;2.60;;
64857;SDS011;51335;51.148;6.950;2022-12-20T03:20:48;4.32;;;2.38;;
64857;SDS011;51335;51.148;6.950;2022-12-20T03:21:18;4.97;;;2.50;;
64857;SDS011;51335;51.148;6.950;2022-12-20T03:21:48;5.97;;;2.80;;
64857;SDS011;51335;51.148;6.950;2022-12-20T03:22:18;4.60;;;2.50;;
64857;SDS011;51335;51.148;6.950;2022-12-20T03:22:49;4.65;;;2.47;;
64857;SDS011;51335;51.148;6.950;2022-12-20T03:23:19;4.60;;;2.53;;
64857;SDS011;51335;51.148;6.950;2022-12-20T03:23:49;5.47;;;2.65;;
64857;SDS011;51335;51.148;6.950;2022-12-20T03:24:20;5.40;;;2.90;;
64857;SDS011;51335;51.148;6.950;2022-12-20T03:24:50;5.50;;;2.65;;
64857;SDS011;51335;51.148;6.950;2022-12-20T03:25:21;7.95;;;2.72;;
64857;SDS011;51335;51.148;6.950;2022-12-20T03:25:51;4.45;;;2.45;;
64857;SDS011;51335;51.148;6.950;2022-12-20T03:26:21;4.32;;;2.63;;
64857;SDS011;51335;51.148;6.950;2022-12-20T03:26:52;5.43;;;2.70;;
64857;SDS011;51335;51.148;6.950;2022-12-20T03:27:22;5.03;;;2.80;;
64857;SDS011;51335;51.148;6.950;2022-12-20T03:27:52;5.68;;;2.80;;
64857;SDS011;51335;51.148;6.950;2022-12-20T03:28:23;3.67;;;2.58;;
64857;SDS011;51335;51.148;6.950;2022-12-20T03:28:53;5.95;;;2.65;;
64857;SDS011;51335;51.148;6.950;2022-12-20T03:29:23;5.25;;;2.50;;
64857;SDS011;51335;51.148;6.950;2022-12-20T03:29:54;5.03;;;2.95;;
64857;SDS011;51335;51.148;6.950;2022-12-20T03:30:24;3.58;;;2.42;;